Time;durP1;ratioP1;P1;durP2;ratioP2;P2;SDS_P1;SDS_P2;PMS_P1;PMS_P2;Temp;Humidity;BMP_temperature;BMP_pressure;BME280_temperature;BME280_humidity;BME280_pressure;Samples;Min_cycle;Max_cycle;Signal;HPM_P1;HPM_P2
2022/08/25 00:01:25;;;;;;;1.73;1.60;;;29.00;52.20;;;;;;5015734;28;20026;-83
2022/08/25 00:03:51;;;;;;;2.67;1.73;;;28.90;52.20;;;;;;4998952;28;20026;-81
2022/08/25 00:06:18;;;;;;;1.92;1.35;;;28.90;52.20;;;;;;4998784;28;20041;-83
2022/08/25 00:08:44;;;;;;;1.38;1.27;;;28.90;52.20;;;;;;4998687;28;20084;-83
2022/08/25 00:11:17;;;;;;;1.63;1.50;;;28.90;52.20;;;;;;4998633;28;20026;-84
2022/08/25 00:13:45;;;;;;;1.70;1.40;;;28.90;52.20;;;;;;4998992;28;20030;-82
2022/08/25 00:16:13;;;;;;;1.33;1.23;;;28.80;52.10;;;;;;5005695;28;20045;-81
2022/08/25 00:18:40;;;;;;;1.48;1.38;;;28.80;52.10;;;;;;5007177;28;20033;-81
2022/08/25 00:21:06;;;;;;;1.50;1.40;;;28.80;52.10;;;;;;5021171;28;20120;-84
2022/08/25 00:23:32;;;;;;;1.38;1.27;;;28.70;52.10;;;;;;5016250;28;20030;-82
2022/08/25 00:25:58;;;;;;;1.45;1.35;;;28.70;52.10;;;;;;4982288;28;20038;-83
2022/08/25 00:28:24;;;;;;;2.17;1.50;;;28.70;52.10;;;;;;4998377;28;20097;-83
2022/08/25 00:30:50;;;;;;;1.98;1.52;;;28.70;52.10;;;;;;5015765;28;20173;-82
2022/08/25 00:33:17;;;;;;;1.90;1.50;;;28.70;52.10;;;;;;4981676;28;20492;-82
2022/08/25 00:35:44;;;;;;;2.08;1.40;;;28.60;52.10;;;;;;4998217;28;20049;-84
2022/08/25 00:38:10;;;;;;;1.75;1.60;;;28.60;52.10;;;;;;4997521;28;20022;-82
2022/08/25 00:40:38;;;;;;;2.20;1.63;;;28.60;52.10;;;;;;4981261;28;20217;-82
2022/08/25 00:43:05;;;;;;;2.38;1.50;;;28.60;52.10;;;;;;4981221;28;20034;-82
2022/08/25 00:45:32;;;;;;;1.58;1.40;;;28.50;52.10;;;;;;5015219;28;20029;-83
2022/08/25 00:47:58;;;;;;;1.90;1.42;;;28.50;52.10;;;;;;5015046;28;20050;-82
2022/08/25 00:50:25;;;;;;;2.03;1.42;;;28.50;52.10;;;;;;4997635;28;20512;-83
2022/08/25 00:52:54;;;;;;;1.70;1.60;;;28.50;52.10;;;;;;4980944;28;20414;-82
2022/08/25 00:55:28;;;;;;;2.20;1.52;;;28.50;52.10;;;;;;5015407;28;20060;-83
2022/08/25 00:58:04;;;;;;;1.50;1.40;;;28.50;52.10;;;;;;4997530;28;20470;-82
2022/08/25 01:00:36;;;;;;;2.05;1.52;;;28.40;52.10;;;;;;5014989;28;20038;-82
2022/08/25 01:03:03;;;;;;;1.30;1.20;;;28.40;52.10;;;;;;4998045;28;20109;-81
2022/08/25 01:05:30;;;;;;;2.15;1.50;;;28.40;52.10;;;;;;4981951;28;20022;-82
2022/08/25 01:07:56;;;;;;;2.35;1.50;;;28.40;52.10;;;;;;4981172;28;20061;-81
2022/08/25 01:10:24;;;;;;;1.73;1.42;;;28.40;52.10;;;;;;4997565;28;20025;-83
2022/08/25 01:12:55;;;;;;;1.52;1.42;;;28.30;52.00;;;;;;4997275;28;20034;-85
2022/08/25 01:15:21;;;;;;;2.03;1.60;;;28.30;52.00;;;;;;4997700;28;20037;-83
2022/08/25 01:17:49;;;;;;;2.65;1.73;;;28.30;52.00;;;;;;4997193;28;20034;-82
2022/08/25 01:20:18;;;;;;;1.85;1.67;;;28.30;52.10;;;;;;4997727;28;20099;-81
2022/08/25 01:22:44;;;;;;;1.58;1.42;;;28.30;52.10;;;;;;4980979;28;20475;-82
2022/08/25 01:25:21;;;;;;;1.50;1.40;;;28.20;52.10;;;;;;4996534;28;20034;-84
2022/08/25 01:27:47;;;;;;;1.52;1.42;;;28.20;52.10;;;;;;5015023;28;20030;-83
2022/08/25 01:30:13;;;;;;;2.15;1.65;;;28.20;52.10;;;;;;4964295;28;20026;-81
2022/08/25 01:32:39;;;;;;;3.05;1.63;;;28.20;52.10;;;;;;4996983;28;20030;-82
2022/08/25 01:35:05;;;;;;;1.92;1.65;;;28.20;52.10;;;;;;4996866;28;20050;-82
2022/08/25 01:37:34;;;;;;;1.70;1.52;;;28.10;52.00;;;;;;4980375;28;20033;-85
2022/08/25 01:40:00;;;;;;;2.50;1.70;;;28.10;52.10;;;;;;4980415;28;20530;-84
2022/08/25 01:43:04;;;;;;;2.20;1.60;;;28.10;52.10;;;;;;4996700;28;20128;-84
2022/08/25 01:45:30;;;;;;;1.63;1.50;;;28.10;52.10;;;;;;4996530;28;20091;-82
2022/08/25 01:47:56;;;;;;;2.33;1.80;;;28.10;52.00;;;;;;4996905;28;20120;-81
2022/08/25 01:50:21;;;;;;;1.70;1.40;;;28.00;52.00;;;;;;4996330;28;20038;-85
2022/08/25 01:53:06;;;;;;;2.10;1.52;;;28.00;52.10;;;;;;4996319;28;20054;-81
2022/08/25 01:55:50;;;;;;;2.28;1.33;;;28.00;52.10;;;;;;4996943;28;20026;-82
2022/08/25 01:58:26;;;;;;;1.95;1.60;;;28.00;52.00;;;;;;4985149;28;20070;-82
2022/08/25 02:00:55;;;;;;;1.95;1.60;;;27.90;52.00;;;;;;5014888;28;20033;-81
2022/08/25 02:03:23;;;;;;;2.05;1.70;;;27.90;52.00;;;;;;4996765;28;20026;-81
2022/08/25 02:05:50;;;;;;;1.80;1.50;;;27.90;52.00;;;;;;4964622;28;20030;-83
2022/08/25 02:08:16;;;;;;;1.88;1.40;;;27.90;52.00;;;;;;4996379;28;20028;-81
2022/08/25 02:10:43;;;;;;;1.88;1.77;;;27.80;52.00;;;;;;4983431;28;20034;-81
2022/08/25 02:13:09;;;;;;;3.78;1.70;;;27.80;52.00;;;;;;5002814;28;20034;-84
2022/08/25 02:15:40;;;;;;;2.58;1.83;;;27.80;52.00;;;;;;4970086;28;20033;-81
2022/08/25 02:18:07;;;;;;;1.85;1.63;;;27.80;52.00;;;;;;4980545;28;20034;-82
2022/08/25 02:20:33;;;;;;;2.20;1.60;;;27.80;52.00;;;;;;4979954;28;20029;-81
2022/08/25 02:22:59;;;;;;;2.17;1.50;;;27.80;52.00;;;;;;5014088;28;20030;-82
2022/08/25 02:25:25;;;;;;;3.60;1.55;;;27.70;52.00;;;;;;4996656;28;20045;-82
2022/08/25 02:27:50;;;;;;;2.83;1.80;;;27.70;52.00;;;;;;4964249;28;20046;-82
2022/08/25 02:30:16;;;;;;;2.45;1.50;;;27.70;52.00;;;;;;4996191;28;20030;-81
2022/08/25 02:32:42;;;;;;;2.22;1.75;;;27.70;52.00;;;;;;4996529;28;20034;-82
2022/08/25 02:35:08;;;;;;;2.03;1.60;;;27.70;52.10;;;;;;4997044;28;20034;-81
2022/08/25 02:37:35;;;;;;;1.63;1.52;;;27.70;52.10;;;;;;4996376;28;20029;-85
2022/08/25 02:40:01;;;;;;;2.45;1.63;;;27.70;52.10;;;;;;4979969;28;20106;-82
2022/08/25 02:42:27;;;;;;;3.67;1.83;;;27.60;52.00;;;;;;4982001;28;20045;-83
2022/08/25 02:44:53;;;;;;;1.98;1.67;;;27.60;52.00;;;;;;4999691;28;20026;-82
2022/08/25 02:47:19;;;;;;;2.10;1.70;;;27.60;52.10;;;;;;5000314;28;20037;-83
2022/08/25 02:49:45;;;;;;;2.88;1.70;;;27.60;52.10;;;;;;4999890;28;20034;-83
2022/08/25 02:52:10;;;;;;;2.55;1.73;;;27.50;52.00;;;;;;4999382;28;20057;-83
2022/08/25 02:54:36;;;;;;;3.28;1.70;;;27.50;52.10;;;;;;4983519;28;20478;-86
2022/08/25 02:57:03;;;;;;;1.92;1.50;;;27.50;52.70;;;;;;4983175;28;20061;-82
2022/08/25 02:59:28;;;;;;;2.20;1.50;;;27.50;52.10;;;;;;4999211;28;20113;-83
2022/08/25 03:01:54;;;;;;;2.15;1.63;;;27.50;52.10;;;;;;4999194;28;20120;-84
2022/08/25 03:04:20;;;;;;;2.40;1.63;;;27.50;52.10;;;;;;4982967;28;20030;-82
2022/08/25 03:06:46;;;;;;;2.28;1.75;;;27.50;52.10;;;;;;4999747;28;20418;-83
2022/08/25 03:09:13;;;;;;;2.40;1.90;;;27.50;52.10;;;;;;4999364;28;20092;-82
2022/08/25 03:11:39;;;;;;;2.92;1.75;;;27.40;52.00;;;;;;4999253;28;20030;-82
2022/08/25 03:14:08;;;;;;;2.20;1.65;;;27.40;52.00;;;;;;4999959;28;20061;-82
2022/08/25 03:16:34;;;;;;;2.13;1.60;;;27.40;52.00;;;;;;4983723;28;20026;-82
2022/08/25 03:19:00;;;;;;;2.15;1.70;;;27.40;52.00;;;;;;4983157;28;20034;-82
2022/08/25 03:21:27;;;;;;;2.30;1.90;;;27.40;52.70;;;;;;4982872;28;20045;-82
2022/08/25 03:23:54;;;;;;;2.55;1.75;;;27.30;52.00;;;;;;5016865;28;20092;-82
2022/08/25 03:29:04;;;;;;;;;;;27.30;52.00;;;;;;5017473;28;20040;-82
2022/08/25 03:31:33;;;;;;;1.63;1.40;;;27.30;52.00;;;;;;4998866;28;19992;-82
2022/08/25 03:34:00;;;;;;;2.50;1.70;;;27.30;51.90;;;;;;4998777;28;20037;-81
2022/08/25 03:36:26;;;;;;;1.88;1.67;;;27.20;51.90;;;;;;4982830;28;20025;-82
2022/08/25 03:38:53;;;;;;;2.42;1.90;;;27.20;52.00;;;;;;4967030;28;20030;-81
2022/08/25 03:41:27;;;;;;;2.50;1.70;;;27.20;52.70;;;;;;4998823;28;20034;-83
2022/08/25 03:43:54;;;;;;;1.92;1.67;;;27.20;52.00;;;;;;4999202;28;20037;-82
2022/08/25 03:46:26;;;;;;;2.58;1.60;;;27.20;52.00;;;;;;4983328;28;20022;-82
2022/08/25 03:48:52;;;;;;;1.90;1.60;;;27.10;51.90;;;;;;5016709;28;20113;-81
2022/08/25 03:51:25;;;;;;;2.08;1.70;;;27.20;52.00;;;;;;4966631;28;20081;-82
2022/08/25 03:53:51;;;;;;;2.70;1.80;;;27.10;52.00;;;;;;4998765;28;20029;-82
2022/08/25 03:56:17;;;;;;;1.75;1.63;;;27.10;51.90;;;;;;4998458;28;20037;-82
2022/08/25 03:58:43;;;;;;;3.10;1.80;;;27.10;51.90;;;;;;4982696;28;20041;-83
2022/08/25 04:01:09;;;;;;;2.53;1.60;;;27.10;51.90;;;;;;4998503;28;20378;-86
2022/08/25 04:03:35;;;;;;;3.58;2.20;;;27.10;51.90;;;;;;4998904;28;20037;-82
2022/08/25 04:06:03;;;;;;;2.47;1.70;;;27.10;51.90;;;;;;5002267;28;20022;-82
2022/08/25 04:08:29;;;;;;;1.98;1.70;;;27.00;51.90;;;;;;5004163;28;20121;-80
2022/08/25 04:10:55;;;;;;;2.15;1.77;;;27.00;51.90;;;;;;4969701;28;20061;-83
2022/08/25 04:13:21;;;;;;;1.77;1.60;;;27.00;52.50;;;;;;4966332;28;20041;-83
2022/08/25 04:15:47;;;;;;;2.45;1.80;;;27.00;51.90;;;;;;4998590;28;20034;-82
2022/08/25 04:18:13;;;;;;;2.55;1.75;;;27.00;51.90;;;;;;4998812;28;20455;-81
2022/08/25 04:20:41;;;;;;;2.35;1.83;;;27.00;51.90;;;;;;4982180;28;20033;-82
2022/08/25 04:23:08;;;;;;;2.20;1.70;;;26.90;51.80;;;;;;5015753;28;20034;-82
2022/08/25 04:25:34;;;;;;;2.70;1.90;;;26.90;51.80;;;;;;5015850;28;20033;-82
2022/08/25 04:28:00;;;;;;;2.85;2.00;;;26.90;51.80;;;;;;4965878;28;20381;-82
2022/08/25 04:30:26;;;;;;;2.47;1.83;;;26.90;51.90;;;;;;5015568;28;20038;-82
2022/08/25 04:32:52;;;;;;;2.13;1.77;;;26.80;51.80;;;;;;4966416;28;20109;-83
2022/08/25 04:35:17;;;;;;;2.53;1.63;;;26.80;51.80;;;;;;4981550;28;20026;-82
2022/08/25 04:37:44;;;;;;;2.80;1.80;;;26.80;51.80;;;;;;4998069;28;20057;-82
2022/08/25 04:40:10;;;;;;;2.67;1.73;;;26.80;51.80;;;;;;4998110;28;20462;-84
2022/08/25 04:42:37;;;;;;;2.60;1.80;;;26.80;51.80;;;;;;4981390;28;20065;-82
2022/08/25 04:45:04;;;;;;;2.92;1.80;;;26.70;51.80;;;;;;4981269;28;20029;-83
2022/08/25 04:47:30;;;;;;;2.97;1.88;;;26.70;51.80;;;;;;4981323;28;20041;-82
2022/08/25 04:49:55;;;;;;;3.05;1.85;;;26.70;51.80;;;;;;4981222;28;20030;-82
2022/08/25 04:52:21;;;;;;;2.72;1.73;;;26.70;51.80;;;;;;4997820;28;20073;-84
2022/08/25 04:54:47;;;;;;;2.83;1.77;;;26.70;51.90;;;;;;5015240;28;20045;-82
2022/08/25 04:57:13;;;;;;;2.50;1.90;;;26.60;51.80;;;;;;4997595;28;20041;-82
2022/08/25 04:59:38;;;;;;;3.08;1.98;;;26.60;51.80;;;;;;4981067;28;20427;-84
2022/08/25 05:02:05;;;;;;;2.22;1.85;;;26.60;51.80;;;;;;5014520;28;20475;-82
2022/08/25 05:04:34;;;;;;;1.92;1.58;;;26.60;51.80;;;;;;5014500;28;20029;-82
2022/08/25 05:07:00;;;;;;;2.30;1.77;;;26.50;51.80;;;;;;4996639;28;20521;-83
2022/08/25 05:09:26;;;;;;;2.45;1.65;;;26.50;51.80;;;;;;4997401;28;20045;-83
2022/08/25 05:11:53;;;;;;;2.13;1.75;;;26.50;51.80;;;;;;4997119;28;20069;-83
2022/08/25 05:14:21;;;;;;;2.80;2.10;;;26.50;51.80;;;;;;4980601;28;20368;-82
2022/08/25 05:16:47;;;;;;;3.08;2.00;;;26.50;51.80;;;;;;5014215;28;20164;-82
2022/08/25 05:19:13;;;;;;;2.22;1.80;;;26.50;51.80;;;;;;5014149;28;20179;-80
2022/08/25 05:21:40;;;;;;;2.35;1.70;;;26.40;51.80;;;;;;4997164;28;20169;-81
2022/08/25 05:24:06;;;;;;;2.92;2.10;;;26.40;51.80;;;;;;4980614;28;20046;-80
2022/08/25 05:26:33;;;;;;;2.50;1.70;;;26.40;51.80;;;;;;4981376;28;20030;-82
2022/08/25 05:29:03;;;;;;;3.85;1.90;;;26.40;51.90;;;;;;4996851;28;20038;-80
2022/08/25 05:31:29;;;;;;;2.33;1.70;;;26.40;51.90;;;;;;4996509;28;20021;-80
2022/08/25 05:33:56;;;;;;;2.55;1.90;;;26.40;51.90;;;;;;4996522;28;20127;-81
2022/08/25 05:36:23;;;;;;;2.80;2.10;;;26.40;51.90;;;;;;4996451;28;20029;-81
2022/08/25 05:38:49;;;;;;;2.95;2.05;;;26.30;51.90;;;;;;4980368;28;20471;-81
2022/08/25 05:41:18;;;;;;;2.65;1.77;;;26.30;51.90;;;;;;5013960;28;20081;-83
2022/08/25 05:43:47;;;;;;;3.17;2.00;;;26.30;51.90;;;;;;4996443;28;20116;-80
2022/08/25 05:46:14;;;;;;;3.10;2.00;;;26.30;51.90;;;;;;4996646;28;20022;-81
2022/08/25 05:48:40;;;;;;;2.95;1.83;;;26.30;51.90;;;;;;4996427;28;20026;-81
2022/08/25 05:51:12;;;;;;;2.38;2.00;;;26.30;51.90;;;;;;5014368;28;20061;-81
2022/08/25 05:53:40;;;;;;;3.28;2.20;;;26.20;51.90;;;;;;5013916;28;20026;-84
2022/08/25 05:56:07;;;;;;;1.88;1.75;;;26.20;52.50;;;;;;4980958;28;20446;-84
2022/08/25 05:58:33;;;;;;;2.22;1.85;;;26.20;51.90;;;;;;4998856;28;20045;-81
2022/08/25 06:03:46;;;;;;;2.75;1.85;;;26.20;51.90;;;;;;4973464;28;20041;-82
2022/08/25 06:06:12;;;;;;;1.73;1.63;;;26.20;52.00;;;;;;4997455;28;20021;-82
2022/08/25 06:08:39;;;;;;;2.35;1.88;;;26.10;52.00;;;;;;4996247;28;20061;-83
2022/08/25 06:11:06;;;;;;;2.38;1.75;;;26.10;52.00;;;;;;4980921;28;20050;-82
2022/08/25 06:13:32;;;;;;;2.22;1.70;;;26.20;52.70;;;;;;4979807;28;20026;-83
2022/08/25 06:15:59;;;;;;;2.08;1.77;;;26.10;52.00;;;;;;4995943;28;20038;-83
2022/08/25 06:18:25;;;;;;;2.25;1.73;;;26.10;52.00;;;;;;4995873;28;20033;-82
2022/08/25 06:20:51;;;;;;;3.60;2.30;;;26.10;52.00;;;;;;4995875;28;20042;-82
2022/08/25 06:23:19;;;;;;;2.58;1.73;;;26.10;52.00;;;;;;4995943;28;20382;-82
2022/08/25 06:25:52;;;;;;;2.50;1.70;;;26.10;52.00;;;;;;4980079;28;20572;-82
2022/08/25 06:28:19;;;;;;;2.45;1.70;;;26.00;52.10;;;;;;4996620;28;20474;-81
2022/08/25 06:30:46;;;;;;;2.22;1.80;;;26.10;52.10;;;;;;4979573;28;20029;-83
2022/08/25 06:33:12;;;;;;;3.90;1.90;;;26.00;52.00;;;;;;4980022;28;20033;-82
2022/08/25 06:35:41;;;;;;;2.83;2.08;;;26.00;52.00;;;;;;4996819;28;20037;-82
2022/08/25 06:38:07;;;;;;;2.97;1.90;;;26.00;52.10;;;;;;4979624;28;20041;-82
2022/08/25 06:40:33;;;;;;;3.72;1.77;;;26.00;52.00;;;;;;4995986;28;20026;-82
2022/08/25 06:42:59;;;;;;;3.10;1.95;;;26.00;52.10;;;;;;4979605;28;20045;-81
2022/08/25 06:45:25;;;;;;;3.13;2.03;;;26.00;52.10;;;;;;4963584;28;20061;-82
2022/08/25 06:47:51;;;;;;;2.28;1.85;;;26.00;52.10;;;;;;4963602;28;20026;-81
2022/08/25 06:50:17;;;;;;;2.38;1.80;;;26.00;52.10;;;;;;4996101;28;20038;-80
2022/08/25 06:52:43;;;;;;;3.08;1.90;;;26.00;52.10;;;;;;4997577;28;20060;-81
2022/08/25 06:55:09;;;;;;;2.95;1.88;;;26.00;52.10;;;;;;4979789;28;20124;-80
2022/08/25 06:57:35;;;;;;;3.85;1.77;;;26.00;52.10;;;;;;4996091;28;20030;-81
2022/08/25 07:00:06;;;;;;;2.75;1.92;;;26.00;52.10;;;;;;4979460;28;20060;-82
2022/08/25 07:02:32;;;;;;;2.47;1.80;;;26.00;52.20;;;;;;4980404;28;20124;-81
2022/08/25 07:04:58;;;;;;;2.47;1.80;;;26.00;52.10;;;;;;4963575;28;20185;-81
2022/08/25 07:07:24;;;;;;;2.35;1.65;;;26.00;52.10;;;;;;4963391;28;20504;-81
2022/08/25 07:09:49;;;;;;;2.75;1.77;;;26.00;52.10;;;;;;4996393;28;20030;-82
2022/08/25 07:12:15;;;;;;;2.90;1.90;;;26.00;52.10;;;;;;4979572;28;20076;-81
2022/08/25 07:14:42;;;;;;;2.28;1.80;;;26.00;52.10;;;;;;4979630;28;20034;-81
2022/08/25 07:17:08;;;;;;;2.85;1.90;;;26.00;52.10;;;;;;5013614;28;20034;-80
2022/08/25 07:19:34;;;;;;;2.83;1.90;;;26.00;52.10;;;;;;4995620;28;20028;-81
2022/08/25 07:21:59;;;;;;;1.95;1.42;;;26.00;52.20;;;;;;4979539;28;20038;-81
2022/08/25 07:24:25;;;;;;;2.60;1.77;;;26.00;52.20;;;;;;4996226;28;20037;-81
2022/08/25 07:26:51;;;;;;;2.58;2.10;;;26.00;52.20;;;;;;4995482;28;20410;-82
2022/08/25 07:29:21;;;;;;;2.30;1.70;;;26.00;52.20;;;;;;4982403;28;20478;-81
2022/08/25 07:31:47;;;;;;;2.88;2.00;;;26.00;52.20;;;;;;4999161;28;20045;-82
2022/08/25 07:36:57;;;;;;;;;;;26.00;52.20;;;;;;4985701;28;20048;-81
2022/08/25 07:39:25;;;;;;;1.95;1.58;;;26.00;52.10;;;;;;5016135;28;19935;-81
2022/08/25 07:41:52;;;;;;;1.70;1.60;;;26.00;52.20;;;;;;5016231;28;20045;-81
2022/08/25 07:44:20;;;;;;;2.38;1.70;;;26.00;52.30;;;;;;4982518;28;20038;-82
2022/08/25 07:46:46;;;;;;;3.28;1.77;;;26.00;52.30;;;;;;4982907;28;20463;-82
2022/08/25 07:49:12;;;;;;;1.98;1.70;;;26.00;52.30;;;;;;4998915;28;20032;-82
2022/08/25 07:51:37;;;;;;;3.22;1.77;;;26.00;52.30;;;;;;4998641;28;20058;-81
2022/08/25 07:54:04;;;;;;;1.92;1.65;;;26.00;52.30;;;;;;4986539;28;20034;-81
2022/08/25 07:56:30;;;;;;;2.38;1.83;;;26.00;52.40;;;;;;4986242;28;20045;-78
2022/08/25 07:58:56;;;;;;;2.97;1.70;;;26.10;52.40;;;;;;4999147;28;20026;-82
2022/08/25 08:01:23;;;;;;;2.33;1.85;;;26.00;52.40;;;;;;4998375;28;20128;-81
2022/08/25 08:03:49;;;;;;;2.45;1.80;;;26.10;52.40;;;;;;4982470;28;20092;-82
2022/08/25 08:06:17;;;;;;;1.92;1.60;;;26.10;52.40;;;;;;4982411;28;20045;-81
2022/08/25 08:08:47;;;;;;;1.63;1.52;;;26.10;52.50;;;;;;4998737;28;20455;-81
2022/08/25 08:11:19;;;;;;;2.53;1.60;;;26.10;52.50;;;;;;4998616;28;20045;-82
2022/08/25 08:13:46;;;;;;;2.50;1.70;;;26.10;52.50;;;;;;4998505;28;20037;-82
2022/08/25 08:16:14;;;;;;;2.47;1.90;;;26.10;52.40;;;;;;4998303;28;20065;-82
2022/08/25 08:18:42;;;;;;;2.20;1.63;;;26.20;52.50;;;;;;4982197;28;20040;-82
2022/08/25 08:21:17;;;;;;;2.47;1.77;;;26.20;52.40;;;;;;4981874;28;20045;-83
2022/08/25 08:23:43;;;;;;;1.88;1.67;;;26.20;52.50;;;;;;5015764;28;20034;-83
2022/08/25 08:26:09;;;;;;;2.38;1.70;;;26.30;52.50;;;;;;4982021;28;20030;-81
2022/08/25 08:28:35;;;;;;;2.38;1.77;;;26.30;52.50;;;;;;5016639;28;20022;-82
2022/08/25 08:31:01;;;;;;;2.08;1.70;;;26.30;52.50;;;;;;4982340;28;20490;-82
2022/08/25 08:33:27;;;;;;;2.58;1.83;;;26.30;52.40;;;;;;4999278;28;20369;-80
2022/08/25 08:36:03;;;;;;;2.28;1.80;;;26.40;52.40;;;;;;4999590;28;20105;-83
2022/08/25 08:38:29;;;;;;;2.58;1.80;;;26.40;52.40;;;;;;4997767;28;20040;-83
2022/08/25 08:43:53;;;;;;;;;;;26.50;52.40;;;;;;5019295;28;20033;-83
2022/08/25 08:46:21;;;;;;;1.83;1.40;;;26.60;52.20;;;;;;4999949;28;19905;-81
2022/08/25 08:49:10;;;;;;;2.38;1.80;;;26.60;52.20;;;;;;4982967;28;20026;-84
2022/08/25 08:51:47;;;;;;;2.67;1.60;;;26.70;52.40;;;;;;4998504;28;20128;-84
2022/08/25 08:54:19;;;;;;;1.90;1.55;;;26.70;52.30;;;;;;5015761;28;20022;-84
2022/08/25 08:56:49;;;;;;;2.28;1.67;;;26.80;52.30;;;;;;4982392;28;20030;-84
2022/08/25 08:59:20;;;;;;;3.22;1.80;;;26.80;52.20;;;;;;4997910;28;20033;-84
2022/08/25 09:01:56;;;;;;;1.70;1.60;;;26.90;52.20;;;;;;4998075;28;20044;-84
2022/08/25 09:04:25;;;;;;;2.40;1.60;;;27.00;52.20;;;;;;4998302;28;20534;-84
2022/08/25 09:06:51;;;;;;;1.60;1.38;;;27.10;52.20;;;;;;5015256;28;20042;-86
2022/08/25 09:09:22;;;;;;;1.77;1.60;;;27.10;52.10;;;;;;5015525;28;20037;-83
2022/08/25 09:12:03;;;;;;;2.60;1.65;;;27.20;52.20;;;;;;4997415;28;20033;-84
2022/08/25 09:14:35;;;;;;;2.17;1.67;;;27.30;52.20;;;;;;4997704;28;20030;-85
2022/08/25 09:17:12;;;;;;;2.88;1.73;;;27.40;52.20;;;;;;4997596;28;20026;-82
2022/08/25 09:20:00;;;;;;;2.03;1.52;;;27.40;52.20;;;;;;4981872;28;20089;-84
2022/08/25 09:22:35;;;;;;;2.40;1.80;;;27.50;52.20;;;;;;5014739;28;20045;-83
2022/08/25 09:25:23;;;;;;;2.20;1.77;;;27.60;52.10;;;;;;4997029;28;20034;-81
2022/08/25 09:27:54;;;;;;;2.33;1.75;;;27.70;52.20;;;;;;4981116;28;20030;-82
2022/08/25 09:30:22;;;;;;;2.00;1.63;;;27.80;52.10;;;;;;5015807;28;20032;-82
2022/08/25 09:33:00;;;;;;;1.92;1.63;;;27.90;52.10;;;;;;4982476;28;20026;-81
2022/08/25 09:35:33;;;;;;;1.60;1.50;;;28.00;52.10;;;;;;4982325;28;20116;-82
2022/08/25 09:38:04;;;;;;;2.33;1.70;;;28.10;52.00;;;;;;4997302;28;20049;-81
2022/08/25 09:40:34;;;;;;;2.03;1.38;;;28.20;52.00;;;;;;4980392;28;20025;-80
2022/08/25 09:43:04;;;;;;;1.98;1.45;;;28.30;52.00;;;;;;4979880;28;20125;-83
2022/08/25 09:45:42;;;;;;;1.70;1.52;;;28.30;51.90;;;;;;4996515;28;20044;-83
2022/08/25 09:48:36;;;;;;;1.70;1.60;;;28.40;51.90;;;;;;4997286;28;20052;-83
2022/08/25 09:51:27;;;;;;;2.08;1.50;;;28.60;51.90;;;;;;5013678;28;20113;-82
2022/08/25 09:53:57;;;;;;;2.15;1.60;;;28.70;51.90;;;;;;5014445;28;20029;-84
2022/08/25 09:56:27;;;;;;;1.48;1.38;;;28.80;51.80;;;;;;4996562;28;20034;-84
2022/08/25 09:58:54;;;;;;;1.80;1.60;;;28.80;51.80;;;;;;4996789;28;20025;-84
2022/08/25 10:01:22;;;;;;;1.83;1.60;;;29.00;51.80;;;;;;4980727;28;20064;-82
2022/08/25 10:04:03;;;;;;;2.05;1.77;;;29.10;51.90;;;;;;4999196;28;20038;-82
2022/08/25 10:06:55;;;;;;;2.00;1.65;;;29.10;51.90;;;;;;4996939;28;20443;-84
2022/08/25 10:09:41;;;;;;;2.08;1.60;;;29.30;51.90;;;;;;4977071;28;20042;-82
2022/08/25 10:12:28;;;;;;;2.30;1.52;;;29.40;51.90;;;;;;4996587;28;20029;-86
2022/08/25 10:14:54;;;;;;;1.90;1.60;;;29.50;51.90;;;;;;4980948;28;20034;-84
2022/08/25 10:17:32;;;;;;;1.98;1.60;;;29.60;51.80;;;;;;4996970;28;20030;-83
2022/08/25 10:20:09;;;;;;;2.58;1.60;;;29.60;51.80;;;;;;4996553;28;20048;-84
2022/08/25 10:22:37;;;;;;;1.83;1.60;;;29.80;51.80;;;;;;4996307;28;20130;-84
2022/08/25 10:25:06;;;;;;;2.15;1.60;;;29.90;51.80;;;;;;4979889;28;20483;-87
2022/08/25 10:28:00;;;;;;;2.13;1.67;;;30.00;51.80;;;;;;4980155;28;20037;-83
2022/08/25 10:30:49;;;;;;;2.00;1.67;;;30.00;51.80;;;;;;4996144;28;20038;-82
2022/08/25 10:33:44;;;;;;;1.73;1.42;;;30.20;51.80;;;;;;5014116;28;20495;-82
2022/08/25 10:36:35;;;;;;;2.08;1.55;;;30.30;51.90;;;;;;4996615;28;20041;-83
2022/08/25 10:39:01;;;;;;;1.55;1.42;;;30.40;51.80;;;;;;4996337;28;20489;-83
2022/08/25 10:41:48;;;;;;;1.67;1.50;;;30.50;51.80;;;;;;4995833;28;20528;-83
2022/08/25 10:47:38;;;;;;;1.70;1.40;;;30.70;51.70;;;;;;4998158;28;20030;-85
2022/08/25 10:50:28;;;;;;;1.83;1.50;;;30.80;51.60;;;;;;4996165;28;20022;-85
2022/08/25 10:53:22;;;;;;;1.73;1.48;;;30.90;51.60;;;;;;4979842;28;20053;-83
2022/08/25 10:55:54;;;;;;;2.17;1.40;;;31.00;51.60;;;;;;5014107;28;20037;-84
2022/08/25 10:58:42;;;;;;;1.60;1.50;;;31.10;51.50;;;;;;4996557;28;20041;-84
2022/08/25 11:01:44;;;;;;;1.70;1.42;;;31.10;51.50;;;;;;4995877;28;20042;-83
2022/08/25 11:04:20;;;;;;;1.98;1.40;;;31.20;51.50;;;;;;4999444;28;20069;-86
2022/08/25 11:07:18;;;;;;;1.52;1.42;;;31.40;51.50;;;;;;4999154;28;20117;-82
2022/08/25 11:09:48;;;;;;;1.45;1.33;;;31.40;51.50;;;;;;4967666;28;20112;-87
2022/08/25 11:12:37;;;;;;;1.48;1.20;;;31.50;51.50;;;;;;4999173;28;20037;-83
2022/08/25 11:15:19;;;;;;;1.63;1.52;;;31.50;51.50;;;;;;4999811;28;20045;-85
2022/08/25 11:18:00;;;;;;;1.50;1.27;;;31.60;51.60;;;;;;4983169;28;20388;-88
2022/08/25 11:20:59;;;;;;;1.92;1.15;;;31.70;51.60;;;;;;4999460;28;20037;-84
2022/08/25 11:23:59;;;;;;;1.30;1.17;;;31.70;51.60;;;;;;5017959;28;20040;-87
2022/08/25 11:26:33;;;;;;;1.65;1.50;;;31.80;51.70;;;;;;4980260;28;20041;-85
2022/08/25 11:29:13;;;;;;;1.50;1.40;;;31.90;52.30;;;;;;4983039;28;20336;-84
2022/08/25 11:31:43;;;;;;;1.90;1.45;;;31.90;51.80;;;;;;5016323;28;20034;-84
2022/08/25 11:34:14;;;;;;;2.08;1.50;;;31.90;51.80;;;;;;4998901;28;20095;-84
2022/08/25 11:37:06;;;;;;;1.50;1.35;;;32.00;52.00;;;;;;4999142;28;20129;-84
2022/08/25 11:39:38;;;;;;;1.77;1.17;;;32.00;52.20;;;;;;4999251;28;20030;-87
2022/08/25 11:42:18;;;;;;;1.40;1.27;;;32.10;52.30;;;;;;5016284;28;20076;-84
2022/08/25 11:45:21;;;;;;;1.88;1.38;;;32.10;52.30;;;;;;4985963;28;20028;-89
2022/08/25 11:47:57;;;;;;;1.92;1.30;;;32.10;52.40;;;;;;4999384;28;20029;-84
2022/08/25 11:50:26;;;;;;;1.90;1.38;;;32.20;52.40;;;;;;4998933;28;20022;-86
2022/08/25 11:53:01;;;;;;;1.35;1.25;;;32.20;52.50;;;;;;4983065;28;20125;-87
2022/08/25 11:55:36;;;;;;;2.08;1.20;;;32.30;52.70;;;;;;4999776;28;20090;-87
2022/08/25 11:58:19;;;;;;;1.90;1.30;;;32.30;52.70;;;;;;4999408;28;20030;-87
2022/08/25 12:00:45;;;;;;;1.48;1.30;;;32.40;52.80;;;;;;4999119;28;20061;-87
2022/08/25 12:03:40;;;;;;;1.30;1.20;;;32.40;52.60;;;;;;4982683;28;20065;-86
2022/08/25 12:06:14;;;;;;;1.85;1.27;;;32.40;52.70;;;;;;5003559;28;20042;-86
2022/08/25 12:08:59;;;;;;;2.38;1.58;;;32.40;52.60;;;;;;5016408;28;20056;-85
2022/08/25 12:11:38;;;;;;;1.83;1.35;;;32.40;53.20;;;;;;4999198;28;20037;-85
2022/08/25 12:14:27;;;;;;;1.40;1.20;;;32.50;52.50;;;;;;4998471;28;20034;-85
2022/08/25 12:16:55;;;;;;;1.63;1.35;;;32.50;52.40;;;;;;4991037;28;20038;-86
2022/08/25 12:19:24;;;;;;;1.55;1.45;;;32.50;52.20;;;;;;4982278;28;20026;-84
2022/08/25 12:21:52;;;;;;;1.35;1.25;;;32.50;52.10;;;;;;4999288;28;20034;-84
2022/08/25 12:24:43;;;;;;;1.40;1.30;;;32.50;52.00;;;;;;5016004;28;20028;-84
2022/08/25 12:27:31;;;;;;;1.35;1.25;;;32.60;52.10;;;;;;4981632;28;20040;-84
2022/08/25 12:30:20;;;;;;;2.00;1.30;;;32.50;51.90;;;;;;4983083;28;20398;-85
2022/08/25 12:33:00;;;;;;;1.67;1.23;;;32.60;51.90;;;;;;5015977;28;20112;-84
2022/08/25 12:35:48;;;;;;;1.42;1.20;;;32.60;51.70;;;;;;4998224;28;20033;-83
2022/08/25 12:38:24;;;;;;;1.42;1.27;;;32.60;51.50;;;;;;5020713;28;20029;-83
2022/08/25 12:40:49;;;;;;;1.40;1.30;;;32.60;51.30;;;;;;5002285;28;20079;-82
2022/08/25 12:43:19;;;;;;;1.38;1.27;;;32.70;51.30;;;;;;4997992;28;20030;-83
2022/08/25 12:45:50;;;;;;;1.80;1.40;;;32.70;51.10;;;;;;4998639;28;20119;-83
2022/08/25 12:48:25;;;;;;;1.38;1.27;;;32.70;50.80;;;;;;4981272;28;20033;-82
2022/08/25 12:51:16;;;;;;;1.52;1.27;;;32.70;50.60;;;;;;4997562;28;20029;-82
2022/08/25 12:54:10;;;;;;;1.33;1.20;;;32.70;50.60;;;;;;5014975;28;20085;-82
2022/08/25 12:57:26;;;;;;;1.83;1.30;;;32.80;50.60;;;;;;4998373;28;20114;-86
2022/08/25 12:59:55;;;;;;;1.30;1.20;;;32.80;50.60;;;;;;4922935;29;20081;-85
2022/08/25 13:02:49;;;;;;;2.03;1.35;;;32.80;50.60;;;;;;4975780;28;20041;-81
2022/08/25 13:05:24;;;;;;;1.85;1.30;;;32.80;50.70;;;;;;4997671;28;20038;-82
2022/08/25 13:07:50;;;;;;;1.50;1.40;;;32.80;50.60;;;;;;4998251;28;20034;-82
2022/08/25 13:10:40;;;;;;;1.73;1.15;;;32.90;50.60;;;;;;4997759;28;20030;-82
2022/08/25 13:13:12;;;;;;;1.20;1.10;;;32.80;50.50;;;;;;4998161;28;20034;-82
2022/08/25 13:15:44;;;;;;;1.50;1.40;;;32.80;50.50;;;;;;4981872;28;20041;-84
2022/08/25 13:18:24;;;;;;;1.52;1.23;;;32.90;50.50;;;;;;4981144;28;20030;-85
2022/08/25 13:21:05;;;;;;;1.40;1.30;;;32.80;50.30;;;;;;4981680;28;20030;-81
2022/08/25 13:23:36;;;;;;;1.30;1.20;;;32.90;50.30;;;;;;4997622;28;20034;-84